createdAt,value
2018-09-24T00:01:29.593Z,10.21
2018-09-24T00:03:58.120Z,10.29
2018-09-24T00:06:26.652Z,10.10
2018-09-24T00:08:55.224Z,10.20
2018-09-24T00:11:23.741Z,10.07
2018-09-24T00:13:52.201Z,10.17
2018-09-24T00:16:20.742Z,10.11
2018-09-24T00:18:49.270Z,10.16
2018-09-24T00:21:17.776Z,10.25
2018-09-24T00:23:46.295Z,10.46
2018-09-24T00:26:14.816Z,10.50
2018-09-24T00:28:43.357Z,10.24
2018-09-24T00:31:12.815Z,10.28
2018-09-24T00:33:41.256Z,10.17
2018-09-24T00:36:09.844Z,10.31
2018-09-24T00:38:38.388Z,10.34
2018-09-24T00:41:06.924Z,10.24
2018-09-24T00:43:35.455Z,10.29
2018-09-24T00:46:03.929Z,10.30
2018-09-24T00:48:32.417Z,10.39
2018-09-24T00:51:00.932Z,10.13
2018-09-24T00:53:29.422Z,9.96
2018-09-24T00:55:57.892Z,10.05
2018-09-24T00:58:27.338Z,9.99
2018-09-24T01:00:55.868Z,9.97
2018-09-24T01:03:24.642Z,9.85
2018-09-24T01:05:53.141Z,9.81
2018-09-24T01:08:22.220Z,9.59
2018-09-24T01:10:50.816Z,9.32
2018-09-24T01:13:19.384Z,9.40
2018-09-24T01:15:47.872Z,9.49
2018-09-24T01:18:17.038Z,9.52
2018-09-24T01:20:45.540Z,9.42
2018-09-24T01:23:14.128Z,9.45
2018-09-24T01:25:42.693Z,9.26
2018-09-24T01:28:12.280Z,9.21
2018-09-24T01:30:40.812Z,9.01
2018-09-24T01:33:09.366Z,9.02
2018-09-24T01:35:37.815Z,8.92
2018-09-24T01:38:06.359Z,8.98
2018-09-24T01:40:34.836Z,8.88
2018-09-24T01:43:04.230Z,8.82
2018-09-24T01:45:32.676Z,8.68
2018-09-24T01:48:01.644Z,8.81
2018-09-24T01:50:30.136Z,8.74
2018-09-24T01:53:03.462Z,8.83
2018-09-24T01:55:31.891Z,8.72
2018-09-24T01:58:00.413Z,8.68
2018-09-24T02:00:28.836Z,8.70
2018-09-24T02:02:57.298Z,8.63
2018-09-24T02:05:25.774Z,8.61
2018-09-24T02:07:54.297Z,8.54
2018-09-24T02:10:23.271Z,8.62
2018-09-24T02:12:53.804Z,8.53
2018-09-24T02:15:27.729Z,8.49
2018-09-24T02:17:57.267Z,8.36
2018-09-24T02:20:25.804Z,8.44
2018-09-24T02:22:54.292Z,8.38
2018-09-24T02:25:22.772Z,8.35
2018-09-24T02:27:52.239Z,8.35
2018-09-24T02:30:20.947Z,8.23
2018-09-24T02:32:49.440Z,8.22
2018-09-24T02:35:18.015Z,8.21
2018-09-24T02:37:46.585Z,8.27
2018-09-24T02:40:21.808Z,7.88
2018-09-24T02:42:51.345Z,7.93
2018-09-24T02:45:20.148Z,8.08
2018-09-24T02:47:48.818Z,8.09
2018-09-24T02:50:17.307Z,7.97
2018-09-24T02:52:45.751Z,7.45
2018-09-24T02:55:19.569Z,7.63
2018-09-24T02:57:48.035Z,7.73
2018-09-24T03:00:22.275Z,7.69
2018-09-24T03:02:50.695Z,7.74
2018-09-24T03:05:19.259Z,7.73
2018-09-24T03:07:48.623Z,7.59
2018-09-24T03:10:17.121Z,7.47
2018-09-24T03:12:52.066Z,7.52
2018-09-24T03:15:20.963Z,7.47
2018-09-24T03:17:49.749Z,7.56
2018-09-24T03:20:18.339Z,7.57
2018-09-24T03:22:46.770Z,7.55
2018-09-24T03:25:17.381Z,7.51
2018-09-24T03:27:46.243Z,7.50
2018-09-24T03:30:14.832Z,7.49
2018-09-24T03:32:43.371Z,7.44
2018-09-24T03:35:11.880Z,7.50
2018-09-24T03:37:40.395Z,7.49
2018-09-24T03:40:08.863Z,7.46
2018-09-24T03:42:38.179Z,7.26
2018-09-24T03:45:06.619Z,7.46
2018-09-24T03:47:35.829Z,7.41
2018-09-24T03:50:04.294Z,7.44
2018-09-24T03:52:32.767Z,7.37
2018-09-24T03:55:01.252Z,7.43
2018-09-24T03:57:29.791Z,7.42
2018-09-24T03:59:58.407Z,7.16
2018-09-24T04:02:27.010Z,7.04
2018-09-24T04:05:00.848Z,7.20
2018-09-24T04:07:34.506Z,7.19
2018-09-24T04:10:08.184Z,7.13
2018-09-24T04:12:41.948Z,7.08
2018-09-24T04:15:15.819Z,7.07
2018-09-24T04:17:49.715Z,6.95
2018-09-24T04:20:23.321Z,6.77
2018-09-24T04:22:57.331Z,6.71
2018-09-24T04:25:30.936Z,6.90
2018-09-24T04:28:05.376Z,6.99
2018-09-24T04:30:39.124Z,7.05
2018-09-24T04:33:12.681Z,6.90
2018-09-24T04:35:46.560Z,6.69
2018-09-24T04:38:20.473Z,6.75
2018-09-24T04:40:54.262Z,6.61
2018-09-24T04:43:27.780Z,6.35
2018-09-24T04:46:01.523Z,6.56
2018-09-24T04:48:35.500Z,6.39
2018-09-24T04:51:09.287Z,6.26
2018-09-24T04:53:42.977Z,6.18
2018-09-24T04:56:16.795Z,6.14
2018-09-24T04:58:51.363Z,6.36
2018-09-24T05:01:26.283Z,6.35
2018-09-24T05:03:59.893Z,6.42
2018-09-24T05:06:34.909Z,6.06
2018-09-24T05:09:10.624Z,6.25
2018-09-24T05:11:44.251Z,6.10
2018-09-24T05:14:17.956Z,6.03
2018-09-24T05:16:51.462Z,6.38
2018-09-24T05:19:26.123Z,6.20
2018-09-24T05:22:00.128Z,6.01
2018-09-24T05:24:33.924Z,5.82
2018-09-24T05:27:08.084Z,6.23
2018-09-24T05:29:42.531Z,5.98
2018-09-24T05:32:16.393Z,6.35
2018-09-24T05:34:49.918Z,6.34
2018-09-24T05:37:23.517Z,6.42
2018-09-24T05:39:57.813Z,6.01
2018-09-24T05:42:31.511Z,6.33
2018-09-24T05:45:05.291Z,6.18
2018-09-24T05:47:39.039Z,5.96
2018-09-24T05:50:13.376Z,6.30
2018-09-24T05:52:47.201Z,6.07
2018-09-24T05:55:21.072Z,6.06
2018-09-24T05:57:54.788Z,6.20
2018-09-24T06:00:28.897Z,5.98
2018-09-24T06:03:03.155Z,6.35
2018-09-24T06:05:37.794Z,6.28
2018-09-24T06:08:11.647Z,6.27
2018-09-24T06:10:48.617Z,6.56
2018-09-24T06:13:22.328Z,6.34
2018-09-24T06:15:56.291Z,6.31
2018-09-24T06:18:30.148Z,6.53
2018-09-24T06:21:03.815Z,6.62
2018-09-24T06:23:38.015Z,6.64
2018-09-24T06:26:11.939Z,7.14
2018-09-24T06:28:46.597Z,7.08
2018-09-24T06:31:21.436Z,7.03
2018-09-24T06:33:55.540Z,7.10
2018-09-24T06:36:29.135Z,7.25
2018-09-24T06:39:02.888Z,7.26
2018-09-24T06:41:37.489Z,7.50
2018-09-24T06:44:11.348Z,7.92
2018-09-24T06:46:45.137Z,8.09
2018-09-24T06:49:19.939Z,8.32
2018-09-24T06:51:54.463Z,8.56
2018-09-24T06:54:28.268Z,8.83
2018-09-24T06:57:02.068Z,9.09
2018-09-24T06:59:35.809Z,9.31
2018-09-24T07:02:10.398Z,9.50
2018-09-24T07:04:44.121Z,10.13
2018-09-24T07:07:17.862Z,10.50
2018-09-24T07:09:51.760Z,11.14
2018-09-24T07:12:25.589Z,10.89
2018-09-24T07:15:00.230Z,11.65
2018-09-24T07:17:33.852Z,11.50
2018-09-24T07:20:07.652Z,11.76
2018-09-24T07:22:41.501Z,11.67
2018-09-24T07:25:15.193Z,11.50
2018-09-24T07:27:48.972Z,11.65
2018-09-24T07:30:22.774Z,11.97
2018-09-24T07:32:58.445Z,11.44
2018-09-24T07:35:32.043Z,12.22
2018-09-24T07:38:05.664Z,12.28
2018-09-24T07:40:39.388Z,11.92
2018-09-24T07:43:13.813Z,12.36
2018-09-24T07:45:47.325Z,12.30
2018-09-24T07:48:21.118Z,12.41
2018-09-24T07:50:54.900Z,12.62
2018-09-24T07:53:29.442Z,12.59
2018-09-24T07:56:03.325Z,12.99
2018-09-24T07:58:37.167Z,12.91
2018-09-24T08:01:10.877Z,13.17
2018-09-24T08:03:45.893Z,12.73
2018-09-24T08:06:19.714Z,12.93
2018-09-24T08:08:53.812Z,13.41
2018-09-24T08:11:27.579Z,13.56
2018-09-24T08:14:01.740Z,14.73
2018-09-24T08:16:35.450Z,14.24
2018-09-24T08:19:09.089Z,13.77
2018-09-24T08:21:42.888Z,14.57
2018-09-24T08:24:17.663Z,13.75
2018-09-24T08:26:51.283Z,14.13
2018-09-24T08:29:25.112Z,14.00
2018-09-24T08:31:58.875Z,13.92
2018-09-24T08:34:32.984Z,13.69
2018-09-24T08:37:06.656Z,13.95
2018-09-24T08:39:40.530Z,14.42
2018-09-24T08:42:14.155Z,14.81
2018-09-24T08:44:49.099Z,14.33
2018-09-24T08:47:22.903Z,14.52
2018-09-24T08:49:56.620Z,15.33
2018-09-24T08:52:30.336Z,14.93
2018-09-24T08:55:04.832Z,15.16
2018-09-24T08:57:38.556Z,16.38
2018-09-24T09:00:12.562Z,16.79
2018-09-24T09:02:46.151Z,16.08
2018-09-24T09:05:20.687Z,16.78
2018-09-24T09:07:54.724Z,15.75
2018-09-24T09:10:28.750Z,16.54
2018-09-24T09:13:02.471Z,15.74
2018-09-24T09:15:36.725Z,15.99
2018-09-24T09:18:10.579Z,15.31
2018-09-24T09:20:44.418Z,14.85
2018-09-24T09:23:18.147Z,14.76
2018-09-24T09:25:52.035Z,15.00
2018-09-24T09:28:25.597Z,15.13
2018-09-24T09:30:59.207Z,15.12
2018-09-24T09:33:32.936Z,15.60
2018-09-24T09:36:07.019Z,15.09
2018-09-24T09:38:40.865Z,16.05
2018-09-24T09:41:14.612Z,15.31
2018-09-24T09:43:48.221Z,15.05
2018-09-24T09:46:22.438Z,15.26
2018-09-24T09:48:56.210Z,15.85
2018-09-24T09:51:29.988Z,15.27
2018-09-24T09:54:03.664Z,15.68
2018-09-24T09:56:38.315Z,15.07
2018-09-24T09:59:12.134Z,15.23
2018-09-24T10:01:45.963Z,15.36
2018-09-24T10:04:19.692Z,15.46
2018-09-24T10:06:54.332Z,15.83
2018-09-24T10:09:28.168Z,15.73
2018-09-24T10:12:01.887Z,15.49
2018-09-24T10:14:35.377Z,15.83
2018-09-24T10:17:09.581Z,15.88
2018-09-24T10:19:43.383Z,16.13
2018-09-24T10:22:17.174Z,16.33
2018-09-24T10:24:50.795Z,16.48
2018-09-24T10:27:26.514Z,17.60
2018-09-24T10:30:00.120Z,16.32
2018-09-24T10:32:34.044Z,16.74
2018-09-24T10:35:07.740Z,16.74
2018-09-24T10:37:41.940Z,16.44
2018-09-24T10:40:15.507Z,17.28
2018-09-24T10:42:49.415Z,17.28
2018-09-24T10:45:23.167Z,17.29
2018-09-24T10:47:57.303Z,16.08
2018-09-24T10:50:31.223Z,17.42
2018-09-24T10:53:05.405Z,16.98
2018-09-24T10:55:39.165Z,18.74
2018-09-24T10:58:13.795Z,19.72
2018-09-24T11:00:47.566Z,19.63
2018-09-24T11:03:21.199Z,17.03
2018-09-24T11:05:55.032Z,16.96
2018-09-24T11:08:29.493Z,16.09
2018-09-24T11:11:03.382Z,15.55
2018-09-24T11:13:37.107Z,15.50
2018-09-24T11:16:11.033Z,14.80
2018-09-24T11:18:45.415Z,14.77
2018-09-24T11:21:19.333Z,15.14
2018-09-24T11:23:53.211Z,15.50
2018-09-24T11:29:02.648Z,15.75
2018-09-24T11:31:36.380Z,15.86
2018-09-24T11:34:10.281Z,15.31
2018-09-24T11:36:43.848Z,16.10
2018-09-24T11:39:17.523Z,16.24
2018-09-24T11:41:51.183Z,15.08
2018-09-24T11:44:25.467Z,16.49
2018-09-24T11:46:59.368Z,16.98
2018-09-24T11:49:34.095Z,16.74
2018-09-24T11:52:07.772Z,17.52
2018-09-24T11:54:41.368Z,17.65
2018-09-24T11:57:15.164Z,17.73
2018-09-24T11:59:49.357Z,18.50
2018-09-24T12:02:23.547Z,18.86
2018-09-24T12:04:57.340Z,19.46
2018-09-24T12:07:31.177Z,19.88
2018-09-24T12:10:04.815Z,18.79
2018-09-24T12:12:38.564Z,19.46
2018-09-24T12:15:12.293Z,17.93
2018-09-24T12:17:46.970Z,17.61
2018-09-24T12:20:21.644Z,18.01
2018-09-24T12:22:55.400Z,16.56
2018-09-24T12:25:29.104Z,17.07
2018-09-24T12:28:02.859Z,16.41
2018-09-24T12:30:37.445Z,16.48
2018-09-24T12:33:11.106Z,16.29
2018-09-24T12:35:44.822Z,17.34
2018-09-24T12:38:18.326Z,16.92
2018-09-24T12:40:52.979Z,16.19
2018-09-24T12:43:27.459Z,15.80
2018-09-24T12:46:01.192Z,16.68
2018-09-24T12:48:34.770Z,18.41
2018-09-24T12:51:08.908Z,16.89
2018-09-24T12:53:42.700Z,16.67
2018-09-24T12:56:16.402Z,16.05
2018-09-24T12:58:50.237Z,16.26
2018-09-24T13:01:24.227Z,16.11
2018-09-24T13:03:57.743Z,15.87
2018-09-24T13:06:31.578Z,15.99
2018-09-24T13:09:05.903Z,15.84
2018-09-24T13:11:40.253Z,15.96
2018-09-24T13:14:13.967Z,16.61
2018-09-24T13:16:47.687Z,16.90
2018-09-24T13:19:21.396Z,17.13
2018-09-24T13:21:56.029Z,17.11
2018-09-24T13:24:29.647Z,16.56
2018-09-24T13:27:03.424Z,16.52
2018-09-24T13:29:37.115Z,16.68
2018-09-24T13:32:12.616Z,16.17
2018-09-24T13:34:46.231Z,16.57
2018-09-24T13:37:20.048Z,16.28
2018-09-24T13:39:53.679Z,16.16
2018-09-24T13:42:27.528Z,15.88
2018-09-24T13:45:01.325Z,15.66
2018-09-24T13:47:34.998Z,15.47
2018-09-24T13:50:08.630Z,15.67
2018-09-24T13:52:42.594Z,15.63
2018-09-24T13:55:16.343Z,15.48
2018-09-24T13:57:49.961Z,15.58
2018-09-24T14:00:23.732Z,15.95
2018-09-24T14:02:58.550Z,15.67
2018-09-24T14:05:33.026Z,15.90
2018-09-24T14:08:06.779Z,15.55
2018-09-24T14:10:40.556Z,15.40
2018-09-24T14:13:15.062Z,15.67
2018-09-24T14:15:48.700Z,15.65
2018-09-24T14:18:22.419Z,16.17
2018-09-24T14:20:56.623Z,15.80
2018-09-24T14:23:30.948Z,15.52
2018-09-24T14:26:05.473Z,15.15
2018-09-24T14:28:39.347Z,15.17
2018-09-24T14:31:13.728Z,15.42
2018-09-24T14:33:48.500Z,15.43
2018-09-24T14:36:22.323Z,15.92
2018-09-24T14:38:56.009Z,15.65
2018-09-24T14:41:29.747Z,15.70
2018-09-24T14:44:04.266Z,15.39
2018-09-24T14:46:38.115Z,15.59
2018-09-24T14:49:12.429Z,15.02
2018-09-24T14:51:46.811Z,15.10
2018-09-24T14:54:21.435Z,15.44
2018-09-24T14:56:55.104Z,15.50
2018-09-24T14:59:28.829Z,15.75
2018-09-24T15:02:02.685Z,16.08
2018-09-24T15:04:36.939Z,16.67
2018-09-24T15:07:10.679Z,16.85
2018-09-24T15:09:44.354Z,16.49
2018-09-24T15:12:18.189Z,15.75
2018-09-24T15:14:52.685Z,16.19
2018-09-24T15:17:26.335Z,15.85
2018-09-24T15:20:00.126Z,15.58
2018-09-24T15:22:33.850Z,15.47
2018-09-24T15:25:07.769Z,15.21
2018-09-24T15:27:41.567Z,14.78
2018-09-24T15:30:15.092Z,14.93
2018-09-24T15:32:48.931Z,15.02
2018-09-24T15:35:22.978Z,14.91
2018-09-24T15:37:57.187Z,14.80
2018-09-24T15:40:30.846Z,14.75
2018-09-24T15:43:04.596Z,14.80
2018-09-24T15:45:39.297Z,14.65
2018-09-24T15:48:13.077Z,14.79
2018-09-24T15:50:46.719Z,14.71
2018-09-24T15:53:20.365Z,14.89
2018-09-24T15:55:55.155Z,15.01
2018-09-24T15:58:28.906Z,14.80
2018-09-24T16:01:02.648Z,14.93
2018-09-24T16:03:36.582Z,14.92
2018-09-24T16:06:10.304Z,14.82
2018-09-24T16:08:43.930Z,14.84
2018-09-24T16:11:17.616Z,14.84
2018-09-24T16:13:51.412Z,15.04
2018-09-24T16:16:25.579Z,14.93
2018-09-24T16:18:59.513Z,15.02
2018-09-24T16:21:33.288Z,15.21
2018-09-24T16:24:07.876Z,15.06
2018-09-24T16:26:42.201Z,15.07
2018-09-24T16:29:15.921Z,15.16
2018-09-24T16:31:49.706Z,15.01
2018-09-24T16:34:23.386Z,14.79
2018-09-24T16:36:57.764Z,14.80
2018-09-24T16:39:31.488Z,14.65
2018-09-24T16:42:05.691Z,14.70
2018-09-24T16:44:39.532Z,14.77
2018-09-24T16:47:14.333Z,14.73
2018-09-24T16:49:47.915Z,14.58
2018-09-24T16:52:21.632Z,14.48
2018-09-24T16:54:55.468Z,14.54
2018-09-24T16:57:29.704Z,14.46
2018-09-24T17:00:03.494Z,14.58
2018-09-24T17:02:37.046Z,14.33
2018-09-24T17:05:11.608Z,14.28
2018-09-24T17:07:46.429Z,14.14
2018-09-24T17:10:20.111Z,14.14
2018-09-24T17:12:53.835Z,14.19
2018-09-24T17:15:27.976Z,14.01
2018-09-24T17:18:02.113Z,13.99
2018-09-24T17:20:35.969Z,13.79
2018-09-24T17:23:09.673Z,13.69
2018-09-24T17:25:43.351Z,13.58
2018-09-24T17:28:17.925Z,13.56
2018-09-24T17:30:51.692Z,13.53
2018-09-24T17:33:25.557Z,13.54
2018-09-24T17:35:59.158Z,13.38
2018-09-24T17:38:33.125Z,13.39
2018-09-24T17:41:06.969Z,13.37
2018-09-24T17:43:40.580Z,13.41
2018-09-24T17:46:14.507Z,13.34
2018-09-24T17:48:48.774Z,13.29
2018-09-24T17:51:22.485Z,13.33
2018-09-24T17:53:56.151Z,13.20
2018-09-24T17:56:30.248Z,13.29
2018-09-24T17:59:05.639Z,13.16
2018-09-24T18:01:39.615Z,13.20
2018-09-24T18:04:13.445Z,13.17
2018-09-24T18:06:47.235Z,13.07
2018-09-24T18:09:20.844Z,13.10
2018-09-24T18:11:54.682Z,13.05
2018-09-24T18:14:28.390Z,13.04
2018-09-24T18:17:02.052Z,12.87
2018-09-24T18:19:36.760Z,12.89
2018-09-24T18:22:10.328Z,12.83
2018-09-24T18:24:44.839Z,12.71
2018-09-24T18:27:18.653Z,12.78
2018-09-24T18:29:52.508Z,12.62
2018-09-24T18:32:26.225Z,12.69
2018-09-24T18:34:59.887Z,12.61
2018-09-24T18:37:33.724Z,12.55
2018-09-24T18:40:08.445Z,12.41
2018-09-24T18:42:42.065Z,12.39
2018-09-24T18:45:15.871Z,12.41
2018-09-24T18:47:49.524Z,12.29
2018-09-24T18:50:23.623Z,12.38
2018-09-24T18:52:57.352Z,12.18
2018-09-24T18:55:31.220Z,12.17
2018-09-24T18:58:05.411Z,12.37
2018-09-24T19:00:39.901Z,12.29
2018-09-24T19:03:13.362Z,12.27
2018-09-24T19:05:46.880Z,11.93
2018-09-24T19:08:20.899Z,11.70
2018-09-24T19:10:54.720Z,11.89
2018-09-24T19:13:28.449Z,11.82
2018-09-24T19:16:02.312Z,11.65
2018-09-24T19:18:36.030Z,11.51
2018-09-24T19:21:10.219Z,11.62
2018-09-24T19:23:43.915Z,11.59
2018-09-24T19:26:17.552Z,11.55
2018-09-24T19:28:51.396Z,11.37
2018-09-24T19:31:28.168Z,11.32
2018-09-24T19:34:01.939Z,11.36
2018-09-24T19:36:35.755Z,11.11
2018-09-24T19:39:09.600Z,11.04
2018-09-24T19:41:44.954Z,10.90
2018-09-24T19:44:18.695Z,10.93
2018-09-24T19:46:52.528Z,10.75
2018-09-24T19:49:26.625Z,10.79
2018-09-24T19:52:01.541Z,10.85
2018-09-24T19:54:35.245Z,10.88
2018-09-24T19:57:09.008Z,10.58
2018-09-24T19:59:43.059Z,10.25
2018-09-24T20:02:17.412Z,10.45
2018-09-24T20:04:50.924Z,10.37
2018-09-24T20:07:25.983Z,10.69
2018-09-24T20:09:59.583Z,10.65
2018-09-24T20:12:33.976Z,10.86
2018-09-24T20:15:07.841Z,10.85
2018-09-24T20:17:41.552Z,10.55
2018-09-24T20:20:15.358Z,10.35
2018-09-24T20:22:50.224Z,10.05
2018-09-24T20:25:23.939Z,10.47
2018-09-24T20:27:57.635Z,10.46
2018-09-24T20:30:31.119Z,10.29
2018-09-24T20:33:05.915Z,10.31
2018-09-24T20:35:39.615Z,10.35
2018-09-24T20:38:13.198Z,10.52
2018-09-24T20:40:47.024Z,10.41
2018-09-24T20:43:20.730Z,10.40
2018-09-24T20:45:54.580Z,10.30
2018-09-24T20:48:28.177Z,10.19
2018-09-24T20:51:01.829Z,9.98
2018-09-24T20:53:36.371Z,9.87
2018-09-24T20:56:10.088Z,9.86
2018-09-24T20:58:44.657Z,9.69
2018-09-24T21:01:18.213Z,9.43
2018-09-24T21:03:52.415Z,9.41
2018-09-24T21:06:26.184Z,9.12
2018-09-24T21:08:59.854Z,9.14
2018-09-24T21:11:33.507Z,9.17
2018-09-24T21:14:07.450Z,9.03
2018-09-24T21:16:41.237Z,9.11
2018-09-24T21:19:15.055Z,9.02
2018-09-24T21:21:48.613Z,9.00
2018-09-24T21:24:23.043Z,8.92
2018-09-24T21:26:56.970Z,9.07
2018-09-24T21:29:30.590Z,9.12
2018-09-24T21:32:07.888Z,8.85
2018-09-24T21:34:41.882Z,8.83
2018-09-24T21:37:15.601Z,8.84
2018-09-24T21:39:49.316Z,8.80
2018-09-24T21:42:23.004Z,8.79
2018-09-24T21:44:57.723Z,8.90
2018-09-24T21:47:31.304Z,8.81
2018-09-24T21:50:04.959Z,8.89
2018-09-24T21:52:38.647Z,8.95
2018-09-24T21:55:13.104Z,8.61
2018-09-24T21:57:46.880Z,8.40
2018-09-24T22:00:20.850Z,8.32
2018-09-24T22:02:54.426Z,8.31
2018-09-24T22:05:29.269Z,8.48
2018-09-24T22:08:03.025Z,8.48
2018-09-24T22:10:36.656Z,8.45
2018-09-24T22:13:10.403Z,8.46
2018-09-24T22:15:44.316Z,8.46
2018-09-24T22:18:18.031Z,8.42
2018-09-24T22:20:51.551Z,8.45
2018-09-24T22:23:32.104Z,8.05
2018-09-24T22:26:06.678Z,7.98
2018-09-24T22:28:40.441Z,7.71
2018-09-24T22:31:14.071Z,8.16
2018-09-24T22:33:47.553Z,8.23
2018-09-24T22:36:21.509Z,8.20
2018-09-24T22:38:55.318Z,8.19
2018-09-24T22:41:29.229Z,8.14
2018-09-24T22:44:02.909Z,8.10
2018-09-24T22:46:36.982Z,7.99
2018-09-24T22:49:10.557Z,7.90
2018-09-24T22:51:44.360Z,7.92
2018-09-24T22:54:18.162Z,7.89
2018-09-24T22:56:52.448Z,7.93
2018-09-24T22:59:26.237Z,7.94
2018-09-24T23:02:00.405Z,7.93
2018-09-24T23:04:34.043Z,7.91
2018-09-24T23:07:08.214Z,7.89
2018-09-24T23:09:42.064Z,7.81
2018-09-24T23:12:15.706Z,7.73
2018-09-24T23:14:49.433Z,7.74
2018-09-24T23:17:23.833Z,7.68
2018-09-24T23:19:57.521Z,7.54
2018-09-24T23:22:31.157Z,7.50
2018-09-24T23:25:04.753Z,7.48
2018-09-24T23:27:38.790Z,7.42
2018-09-24T23:30:12.379Z,7.42
2018-09-24T23:32:46.267Z,7.15
2018-09-24T23:35:20.284Z,7.09
2018-09-24T23:37:54.749Z,7.03
2018-09-24T23:40:28.526Z,7.08
2018-09-24T23:43:02.247Z,7.08
2018-09-24T23:45:35.944Z,7.02
2018-09-24T23:48:10.412Z,7.09
2018-09-24T23:50:44.612Z,7.17
2018-09-24T23:53:18.907Z,7.04
2018-09-24T23:55:53.684Z,7.05
2018-09-24T23:58:28.103Z,7.07
